createdAt,value
2022-12-23T00:01:49.217Z,100211.19
2022-12-23T00:04:34.980Z,100215.34
2022-12-23T00:07:20.500Z,100215.19
2022-12-23T00:10:06.223Z,100208.13
2022-12-23T00:13:10.034Z,100199.38
2022-12-23T00:16:08.330Z,100203.50
2022-12-23T00:18:54.507Z,100196.53
2022-12-23T00:21:39.933Z,100199.09
2022-12-23T00:24:25.165Z,100201.94
2022-12-23T00:27:10.672Z,100204.78
2022-12-23T00:29:56.491Z,100216.22
2022-12-23T00:32:41.966Z,100217.41
2022-12-23T00:35:31.175Z,100224.50
2022-12-23T00:38:38.209Z,100215.25
2022-12-23T00:41:42.249Z,100215.44
2022-12-23T00:44:27.779Z,100198.53
2022-12-23T00:47:33.103Z,100196.84
2022-12-23T00:50:18.554Z,100182.38
2022-12-23T00:53:04.678Z,100166.19
2022-12-23T00:55:51.074Z,100161.97
2022-12-23T00:58:36.544Z,100160.19
2022-12-23T01:01:40.421Z,100158.47
2022-12-23T01:04:44.998Z,100143.97
2022-12-23T01:07:30.699Z,100142.25
2022-12-23T01:10:16.415Z,100138.88
2022-12-23T01:13:01.819Z,100132.00
2022-12-23T01:15:47.852Z,100138.06
2022-12-23T01:18:37.654Z,100132.97
2022-12-23T01:21:23.649Z,100119.38
2022-12-23T01:24:09.452Z,100102.34
2022-12-23T01:26:55.156Z,100094.56
2022-12-23T01:29:41.060Z,100093.47
2022-12-23T01:32:26.399Z,100088.97
2022-12-23T01:35:11.965Z,100088.81
2022-12-23T01:37:57.343Z,100091.25
2022-12-23T01:40:45.256Z,100080.81
2022-12-23T01:43:46.772Z,100068.81
2022-12-23T01:46:32.879Z,100064.75
2022-12-23T01:49:18.443Z,100071.00
2022-12-23T01:52:04.193Z,100087.47
2022-12-23T01:54:49.861Z,100074.84
2022-12-23T01:57:40.233Z,100078.47
2022-12-23T02:00:46.232Z,100079.50
2022-12-23T02:03:44.689Z,100065.09
2022-12-23T02:06:57.099Z,100074.72
2022-12-23T02:09:42.772Z,100067.19
2022-12-23T02:12:43.383Z,100073.41
2022-12-23T02:15:56.373Z,100076.16
2022-12-23T02:19:20.965Z,100072.13
2022-12-23T02:22:37.014Z,100086.91
2022-12-23T02:25:44.175Z,100082.81
2022-12-23T02:28:51.395Z,100068.44
2022-12-23T02:31:54.546Z,100070.31
2022-12-23T02:34:54.583Z,100078.19
2022-12-23T02:38:09.318Z,100068.06
2022-12-23T02:41:23.111Z,100051.94
2022-12-23T02:44:18.749Z,100038.34
2022-12-23T02:47:11.176Z,100028.19
2022-12-23T02:50:02.612Z,100018.94
2022-12-23T02:52:52.133Z,100002.00
2022-12-23T02:55:40.460Z,99990.16
2022-12-23T02:58:32.260Z,99995.59
2022-12-23T03:01:18.570Z,99982.88
2022-12-23T03:04:06.544Z,99983.13
2022-12-23T03:06:55.616Z,99973.91
2022-12-23T03:10:09.073Z,99977.53
2022-12-23T03:13:00.356Z,99972.53
2022-12-23T03:16:04.079Z,99970.03
2022-12-23T03:18:55.401Z,99971.88
2022-12-23T03:21:59.880Z,99964.19
2022-12-23T03:25:19.198Z,99946.22
2022-12-23T03:28:11.271Z,99948.88
2022-12-23T03:31:00.769Z,99940.28
2022-12-23T03:33:51.195Z,99932.59
2022-12-23T03:36:53.115Z,99935.25
2022-12-23T03:39:45.763Z,99924.97
2022-12-23T03:42:43.762Z,99917.28
2022-12-23T03:45:40.839Z,99919.09
2022-12-23T03:48:37.002Z,99912.28
2022-12-23T03:51:28.134Z,99914.09
2022-12-23T03:54:19.369Z,99901.25
2022-12-23T03:57:07.488Z,99891.88
2022-12-23T03:59:54.272Z,99875.66
2022-12-23T04:02:55.187Z,99868.00
2022-12-23T04:05:44.770Z,99868.13
2022-12-23T04:08:36.501Z,99858.72
2022-12-23T04:11:21.859Z,99853.69
2022-12-23T04:14:07.763Z,99848.66
2022-12-23T04:16:56.127Z,99831.59
2022-12-23T04:19:43.009Z,99836.00
2022-12-23T04:22:28.232Z,99825.78
2022-12-23T04:25:16.278Z,99827.63
2022-12-23T04:28:01.610Z,99820.81
2022-12-23T04:30:47.002Z,99815.72
2022-12-23T04:33:32.434Z,99810.59
2022-12-23T04:36:17.793Z,99803.72
2022-12-23T04:39:03.090Z,99796.88
2022-12-23T04:41:48.965Z,99787.41
2022-12-23T04:44:34.113Z,99782.25
2022-12-23T04:47:19.607Z,99784.84
2022-12-23T04:50:05.962Z,99765.13
2022-12-23T04:52:51.444Z,99766.91
2022-12-23T04:55:36.848Z,99754.91
2022-12-23T04:58:24.250Z,99746.38
2022-12-23T05:01:11.706Z,99736.97
2022-12-23T05:03:57.571Z,99734.41
2022-12-23T05:06:42.940Z,99732.72
2022-12-23T05:09:28.512Z,99729.28
2022-12-23T05:12:13.686Z,99718.13
2022-12-23T05:14:59.392Z,99707.78
2022-12-23T05:17:45.159Z,99707.84
2022-12-23T05:20:30.441Z,99700.09
2022-12-23T05:23:16.077Z,99693.22
2022-12-23T05:26:01.816Z,99688.03
2022-12-23T05:28:47.547Z,99682.88
2022-12-23T05:31:33.380Z,99679.44
2022-12-23T05:34:18.909Z,99671.66
2022-12-23T05:37:04.253Z,99677.72
2022-12-23T05:39:49.501Z,99663.91
2022-12-23T05:42:34.861Z,99663.91
2022-12-23T05:45:20.934Z,99656.16
2022-12-23T05:48:07.321Z,99653.56
2022-12-23T05:50:53.568Z,99649.22
2022-12-23T05:53:39.067Z,99647.50
2022-12-23T05:56:24.540Z,99633.69
2022-12-23T05:59:09.984Z,99627.66
2022-12-23T06:01:55.254Z,99625.91
2022-12-23T06:04:40.861Z,99615.56
2022-12-23T06:07:26.308Z,99617.28
2022-12-23T06:10:12.482Z,99622.44
2022-12-23T06:12:58.196Z,99612.09
2022-12-23T06:15:43.623Z,99600.03
2022-12-23T06:18:28.961Z,99584.50
2022-12-23T06:21:14.454Z,99572.38
2022-12-23T06:24:00.232Z,99566.34
2022-12-23T06:26:45.945Z,99551.66
2022-12-23T06:29:31.569Z,99549.06
2022-12-23T06:32:17.510Z,99544.78
2022-12-23T06:35:02.892Z,99543.03
2022-12-23T06:37:48.605Z,99528.34
2022-12-23T06:40:34.529Z,99519.69
2022-12-23T06:43:19.931Z,99512.78
2022-12-23T06:46:05.790Z,99509.31
2022-12-23T06:48:51.697Z,99504.13
2022-12-23T06:51:37.210Z,99500.69
2022-12-23T06:54:23.067Z,99492.03
2022-12-23T06:57:08.777Z,99485.97
2022-12-23T06:59:54.645Z,99479.94
2022-12-23T07:02:40.789Z,99477.31
2022-12-23T07:05:29.476Z,99475.56
2022-12-23T07:08:20.025Z,99475.56
2022-12-23T07:11:05.711Z,99474.69
2022-12-23T07:13:51.295Z,99471.25
2022-12-23T07:16:36.961Z,99472.94
2022-12-23T07:19:22.728Z,99480.69
2022-12-23T07:22:10.408Z,99483.28
2022-12-23T07:24:55.892Z,99486.75
2022-12-23T07:27:41.305Z,99490.19
2022-12-23T07:30:26.793Z,99494.56
2022-12-23T07:33:12.435Z,99495.41
2022-12-23T07:35:59.083Z,99493.69
2022-12-23T07:38:44.887Z,99489.38
2022-12-23T07:41:30.616Z,99477.34
2022-12-23T07:44:22.894Z,99477.31
2022-12-23T07:47:08.887Z,99470.47
2022-12-23T07:49:54.619Z,99459.22
2022-12-23T07:52:40.267Z,99460.09
2022-12-23T07:55:25.723Z,99454.06
2022-12-23T07:58:11.563Z,99452.34
2022-12-23T08:01:05.672Z,99454.94
2022-12-23T08:03:51.315Z,99442.00
2022-12-23T08:06:37.071Z,99424.75
2022-12-23T08:09:22.856Z,99417.00
2022-12-23T08:12:08.613Z,99412.72
2022-12-23T08:14:54.381Z,99413.56
2022-12-23T08:17:40.317Z,99414.41
2022-12-23T08:20:25.841Z,99413.56
2022-12-23T08:23:11.359Z,99422.22
2022-12-23T08:26:10.458Z,99422.22
2022-12-23T08:28:56.138Z,99423.06
2022-12-23T08:31:41.774Z,99415.31
2022-12-23T08:34:27.637Z,99411.88
2022-12-23T08:37:13.737Z,99408.38
2022-12-23T08:39:59.366Z,99410.97
2022-12-23T08:42:44.773Z,99411.84
2022-12-23T08:45:30.271Z,99401.50
2022-12-23T08:48:15.774Z,99404.09
2022-12-23T08:51:07.587Z,99411.84
2022-12-23T08:54:00.945Z,99398.03
2022-12-23T08:56:47.135Z,99396.31
2022-12-23T08:59:33.055Z,99388.53
2022-12-23T09:02:19.304Z,99382.50
2022-12-23T09:05:05.728Z,99379.91
2022-12-23T09:07:51.516Z,99365.22
2022-12-23T09:10:44.983Z,99360.91
2022-12-23T09:13:35.082Z,99362.63
2022-12-23T09:16:22.336Z,99354.03
2022-12-23T09:19:08.089Z,99341.91
2022-12-23T09:21:53.610Z,99346.25
2022-12-23T09:24:39.007Z,99341.88
2022-12-23T09:27:24.354Z,99338.44
2022-12-23T09:30:10.699Z,99334.97
2022-12-23T09:32:56.368Z,99337.56
2022-12-23T09:35:41.718Z,99335.81
2022-12-23T09:38:27.293Z,99335.78
2022-12-23T09:41:21.604Z,99347.03
2022-12-23T09:44:19.366Z,99340.09
2022-12-23T09:47:08.427Z,99341.84
2022-12-23T09:49:58.571Z,99344.44
2022-12-23T09:53:15.803Z,99341.84
2022-12-23T09:56:13.666Z,99334.94
2022-12-23T09:59:36.207Z,99324.63
2022-12-23T10:02:25.109Z,99332.38
2022-12-23T10:05:25.094Z,99327.22
2022-12-23T10:08:33.935Z,99344.47
2022-12-23T10:11:26.534Z,99351.38
2022-12-23T10:14:23.954Z,99351.34
2022-12-23T10:17:16.374Z,99345.31
2022-12-23T10:20:02.545Z,99332.34
2022-12-23T10:22:48.190Z,99327.13
2022-12-23T10:25:41.301Z,99313.28
2022-12-23T10:28:29.758Z,99312.38
2022-12-23T10:31:39.719Z,99313.22
2022-12-23T10:35:00.114Z,99310.59
2022-12-23T10:37:55.324Z,99299.31
2022-12-23T10:40:46.917Z,99302.78
2022-12-23T10:43:35.935Z,99297.56
2022-12-23T10:46:21.698Z,99286.31
2022-12-23T10:49:34.653Z,99293.19
2022-12-23T10:52:27.667Z,99289.66
2022-12-23T10:55:33.436Z,99288.72
2022-12-23T10:58:20.723Z,99293.84
2022-12-23T11:01:14.130Z,99293.81
2022-12-23T11:04:06.441Z,99289.44
2022-12-23T11:07:18.382Z,99280.78
2022-12-23T11:10:02.710Z,99286.75
2022-12-23T11:12:50.998Z,99280.66
2022-12-23T11:15:41.582Z,99277.94
2022-12-23T11:18:26.890Z,99276.16
2022-12-23T11:21:15.266Z,99278.72
2022-12-23T11:24:14.463Z,99270.97
2022-12-23T11:27:03.633Z,99270.09
2022-12-23T11:29:52.394Z,99275.31
2022-12-23T11:32:38.114Z,99266.69
2022-12-23T11:35:32.081Z,99271.84
2022-12-23T11:38:17.416Z,99266.66
2022-12-23T11:41:05.267Z,99260.63
2022-12-23T11:44:32.639Z,99257.13
2022-12-23T11:47:25.687Z,99257.13
2022-12-23T11:50:20.753Z,99258.88
2022-12-23T11:53:25.300Z,99254.53
2022-12-23T11:56:14.910Z,99254.53
2022-12-23T11:59:05.931Z,99251.06
2022-12-23T12:01:51.380Z,99250.25
2022-12-23T12:04:38.099Z,99258.03
2022-12-23T12:07:23.894Z,99264.06
2022-12-23T12:10:31.935Z,99265.81
2022-12-23T12:13:26.275Z,99286.53
2022-12-23T12:16:30.682Z,99213.06
2022-12-23T12:19:48.838Z,99289.16
2022-12-23T12:22:55.651Z,99298.63
2022-12-23T12:25:55.499Z,99283.00
2022-12-23T12:28:44.319Z,99290.66
2022-12-23T12:31:42.973Z,99279.22
2022-12-23T12:34:41.972Z,99277.41
2022-12-23T12:37:39.339Z,99270.47
2022-12-23T12:40:38.010Z,99286.00
2022-12-23T12:43:23.692Z,99292.06
2022-12-23T12:46:24.766Z,99292.00
2022-12-23T12:49:30.626Z,99292.75
2022-12-23T12:52:20.707Z,99298.69
2022-12-23T12:55:25.295Z,99296.84
2022-12-23T12:58:19.820Z,99307.19
2022-12-23T13:01:14.495Z,99309.81
2022-12-23T13:04:32.077Z,99304.56
2022-12-23T13:07:39.517Z,99310.44
2022-12-23T13:10:49.444Z,99292.88
2022-12-23T13:14:23.171Z,99290.72
2022-12-23T13:17:32.712Z,99307.69
2022-12-23T13:20:41.108Z,99296.09
2022-12-23T13:23:45.477Z,99297.09
2022-12-23T13:26:40.123Z,99293.59
2022-12-23T13:29:59.590Z,99303.16
2022-12-23T13:32:54.283Z,99299.59
2022-12-23T13:36:06.194Z,99293.47
2022-12-23T13:39:17.306Z,99292.78
2022-12-23T13:42:06.104Z,99298.09
2022-12-23T13:44:53.057Z,99298.09
2022-12-23T13:48:02.706Z,99306.00
2022-12-23T13:51:12.311Z,99302.66
2022-12-23T13:54:35.352Z,99301.84
2022-12-23T13:57:48.746Z,99310.41
2022-12-23T14:00:35.311Z,99310.50
2022-12-23T14:03:25.108Z,99314.88
2022-12-23T14:06:29.021Z,99318.38
2022-12-23T14:09:16.747Z,99327.91
2022-12-23T14:12:29.832Z,99329.56
2022-12-23T14:15:42.994Z,99344.25
2022-12-23T14:18:46.806Z,99351.25
2022-12-23T14:22:00.326Z,99359.88
2022-12-23T14:25:22.392Z,99367.66
2022-12-23T14:28:07.789Z,99361.56
2022-12-23T14:30:53.378Z,99383.19
2022-12-23T14:33:38.914Z,99384.81
2022-12-23T14:36:26.600Z,99383.91
2022-12-23T14:39:11.857Z,99383.16
2022-12-23T14:42:03.474Z,99390.97
2022-12-23T14:44:51.790Z,99380.59
2022-12-23T14:47:40.653Z,99388.50
2022-12-23T14:50:55.982Z,99383.38
2022-12-23T14:54:00.115Z,99382.53
2022-12-23T14:57:07.631Z,99389.44
2022-12-23T15:00:01.695Z,99380.75
2022-12-23T15:02:47.434Z,99386.84
2022-12-23T15:05:39.091Z,99379.91
2022-12-23T15:08:42.176Z,99386.84
2022-12-23T15:11:31.701Z,99385.25
2022-12-23T15:14:30.099Z,99374.06
2022-12-23T15:17:27.614Z,99381.06
2022-12-23T15:20:20.819Z,99386.31
2022-12-23T15:23:16.950Z,99388.06
2022-12-23T15:26:03.253Z,99389.88
2022-12-23T15:28:48.806Z,99391.66
2022-12-23T15:31:40.422Z,99397.94
2022-12-23T15:34:35.271Z,99400.63
2022-12-23T15:37:30.160Z,99397.22
2022-12-23T15:40:42.271Z,99390.38
2022-12-23T15:43:28.328Z,99401.72
2022-12-23T15:46:29.174Z,99401.81
2022-12-23T15:49:16.768Z,99397.50
2022-12-23T15:52:09.689Z,99409.66
2022-12-23T15:54:59.973Z,99407.16
2022-12-23T15:57:50.451Z,99416.75
2022-12-23T16:00:41.126Z,99428.88
2022-12-23T16:03:40.550Z,99428.88
2022-12-23T16:06:36.424Z,99441.06
2022-12-23T16:09:29.975Z,99441.94
2022-12-23T16:12:20.783Z,99448.03
2022-12-23T16:15:25.877Z,99451.56
2022-12-23T16:18:14.336Z,99458.53
2022-12-23T16:21:05.912Z,99454.25
2022-12-23T16:23:53.315Z,99465.47
2022-12-23T16:26:43.175Z,99463.75
2022-12-23T16:29:28.815Z,99472.38
2022-12-23T16:32:17.223Z,99473.25
2022-12-23T16:35:11.300Z,99479.34
2022-12-23T16:37:59.996Z,99484.53
2022-12-23T16:40:56.606Z,99488.06
2022-12-23T16:43:51.265Z,99484.66
2022-12-23T16:46:42.036Z,99482.13
2022-12-23T16:49:33.839Z,99488.16
2022-12-23T16:52:20.159Z,99489.81
2022-12-23T16:55:14.788Z,99484.69
2022-12-23T16:58:00.404Z,99484.75
2022-12-23T17:00:46.349Z,99488.19
2022-12-23T17:03:35.408Z,99483.84
2022-12-23T17:06:21.817Z,99484.69
2022-12-23T17:09:08.329Z,99480.34
2022-12-23T17:11:54.355Z,99480.38
2022-12-23T17:14:40.190Z,99487.28
2022-12-23T17:17:26.172Z,99478.66
2022-12-23T17:20:13.042Z,99476.13
2022-12-23T17:23:00.193Z,99475.22
2022-12-23T17:25:45.637Z,99484.72
2022-12-23T17:28:32.942Z,99481.22
2022-12-23T17:31:26.486Z,99480.38
2022-12-23T17:34:19.664Z,99491.66
2022-12-23T17:37:23.343Z,99488.22
2022-12-23T17:40:12.833Z,99499.47
2022-12-23T17:42:58.408Z,99505.53
2022-12-23T17:45:45.600Z,99514.97
2022-12-23T17:48:31.981Z,99521.91
2022-12-23T17:51:20.020Z,99529.66
2022-12-23T17:54:06.643Z,99536.56
2022-12-23T17:56:53.125Z,99551.22
2022-12-23T17:59:38.763Z,99555.59
2022-12-23T18:02:33.128Z,99552.19
2022-12-23T18:05:18.519Z,99558.31
2022-12-23T18:08:04.107Z,99553.19
2022-12-23T18:10:49.894Z,99554.16
2022-12-23T18:13:36.501Z,99555.09
2022-12-23T18:16:22.114Z,99548.22
2022-12-23T18:19:17.080Z,99553.47
2022-12-23T18:22:02.401Z,99546.56
2022-12-23T18:24:52.481Z,99561.25
2022-12-23T18:27:41.085Z,99562.13
2022-12-23T18:30:26.749Z,99562.13
2022-12-23T18:33:13.267Z,99570.75
2022-12-23T18:35:58.889Z,99574.19
2022-12-23T18:38:44.182Z,99583.69
2022-12-23T18:41:29.530Z,99581.09
2022-12-23T18:44:21.717Z,99592.31
2022-12-23T18:47:07.413Z,99597.50
2022-12-23T18:49:53.420Z,99605.22
2022-12-23T18:52:38.849Z,99608.69
2022-12-23T18:55:24.658Z,99604.38
2022-12-23T18:58:13.295Z,99606.09
2022-12-23T19:00:58.935Z,99605.19
2022-12-23T19:03:45.610Z,99611.22
2022-12-23T19:06:30.928Z,99611.16
2022-12-23T19:09:21.357Z,99625.81
2022-12-23T19:12:06.953Z,99625.81
2022-12-23T19:14:52.556Z,99634.47
2022-12-23T19:17:38.388Z,99635.38
2022-12-23T19:20:23.772Z,99646.56
2022-12-23T19:23:09.864Z,99641.44
2022-12-23T19:25:55.806Z,99649.22
2022-12-23T19:28:41.937Z,99657.84
2022-12-23T19:31:30.046Z,99653.53
2022-12-23T19:34:16.121Z,99658.72
2022-12-23T19:37:01.449Z,99652.66
2022-12-23T19:39:47.276Z,99652.66
2022-12-23T19:42:34.057Z,99651.78
2022-12-23T19:45:19.358Z,99660.41
2022-12-23T19:48:05.197Z,99659.53
2022-12-23T19:51:07.110Z,99658.63
2022-12-23T19:53:52.956Z,99667.28
2022-12-23T19:56:38.974Z,99666.38
2022-12-23T19:59:24.919Z,99675.00
2022-12-23T20:02:15.715Z,99677.56
2022-12-23T20:05:01.303Z,99683.56
2022-12-23T20:07:47.217Z,99687.88
2022-12-23T20:10:32.876Z,99694.75
2022-12-23T20:13:18.558Z,99689.50
2022-12-23T20:16:05.598Z,99697.25
2022-12-23T20:18:51.569Z,99702.38
2022-12-23T20:21:37.673Z,99702.31
2022-12-23T20:24:23.071Z,99694.53
2022-12-23T20:27:11.737Z,99691.06
2022-12-23T20:29:58.965Z,99698.00
2022-12-23T20:32:44.281Z,99693.66
2022-12-23T20:35:32.673Z,99697.13
2022-12-23T20:38:18.428Z,99704.94
2022-12-23T20:41:04.459Z,99710.13
2022-12-23T20:44:23.265Z,99711.00
2022-12-23T20:46:56.126Z,99711.88
2022-12-23T20:49:41.899Z,99716.19
2022-12-23T20:52:27.276Z,99713.63
2022-12-23T20:55:12.873Z,99708.44
2022-12-23T20:58:18.107Z,99708.47
2022-12-23T21:01:12.426Z,99721.47
2022-12-23T21:04:00.508Z,99717.16
2022-12-23T21:06:46.062Z,99726.69
2022-12-23T21:09:31.936Z,99726.75
2022-12-23T21:12:17.812Z,99734.50
2022-12-23T21:15:03.812Z,99736.25
2022-12-23T21:17:49.484Z,99741.44
2022-12-23T21:20:37.133Z,99753.53
2022-12-23T21:23:22.631Z,99744.84
2022-12-23T21:26:12.533Z,99749.19
2022-12-23T21:29:00.549Z,99745.75
2022-12-23T21:31:46.452Z,99734.47
2022-12-23T21:34:32.122Z,99736.22
2022-12-23T21:37:17.508Z,99734.47
2022-12-23T21:40:03.192Z,99736.22
2022-12-23T21:42:48.855Z,99747.44
2022-12-23T21:45:35.599Z,99746.59
2022-12-23T21:48:21.266Z,99745.72
2022-12-23T21:51:11.703Z,99745.78
2022-12-23T21:53:58.570Z,99760.50
2022-12-23T21:56:43.984Z,99756.22
2022-12-23T21:59:34.790Z,99762.28
2022-12-23T22:02:21.400Z,99773.47
2022-12-23T22:05:07.685Z,99776.06
2022-12-23T22:07:53.217Z,99782.06
2022-12-23T22:10:38.915Z,99791.59
2022-12-23T22:13:26.357Z,99797.63
2022-12-23T22:16:15.074Z,99786.38
2022-12-23T22:19:01.827Z,99794.16
2022-12-23T22:21:47.370Z,99801.97
2022-12-23T22:24:32.683Z,99805.41
2022-12-23T22:27:18.171Z,99812.34
2022-12-23T22:30:03.938Z,99821.81
2022-12-23T22:32:49.638Z,99831.34
2022-12-23T22:35:35.146Z,99828.75
2022-12-23T22:38:20.583Z,99828.75
2022-12-23T22:41:06.188Z,99833.94
2022-12-23T22:43:51.918Z,99844.34
2022-12-23T22:46:37.864Z,99837.41
2022-12-23T22:49:23.297Z,99844.34
2022-12-23T22:52:09.217Z,99848.69
2022-12-23T22:54:54.822Z,99842.59
2022-12-23T22:57:41.028Z,99843.47
2022-12-23T23:00:26.918Z,99849.56
2022-12-23T23:03:12.390Z,99859.91
2022-12-23T23:06:06.103Z,99856.47
2022-12-23T23:08:52.688Z,99854.75
2022-12-23T23:11:40.773Z,99859.06
2022-12-23T23:14:26.535Z,99858.19
2022-12-23T23:17:12.179Z,99849.56
2022-12-23T23:19:58.105Z,99846.97
2022-12-23T23:22:44.653Z,99856.44
2022-12-23T23:25:30.186Z,99865.03
2022-12-23T23:28:16.295Z,99872.78
2022-12-23T23:31:32.063Z,99893.47
2022-12-23T23:34:08.035Z,99892.56
2022-12-23T23:36:53.645Z,99892.53
2022-12-23T23:39:39.036Z,99904.63
2022-12-23T23:42:24.701Z,99905.47
2022-12-23T23:45:10.732Z,99902.88
2022-12-23T23:47:56.436Z,99896.78
2022-12-23T23:50:42.784Z,99902.78
2022-12-23T23:53:28.411Z,99899.31
2022-12-23T23:56:14.043Z,99900.16
2022-12-23T23:58:59.944Z,99903.53
